Time;durP1;ratioP1;P1;durP2;ratioP2;P2;SDS_P1;SDS_P2;PMS_P1;PMS_P2;Temp;Humidity;BMP_temperature;BMP_pressure;BME280_temperature;BME280_humidity;BME280_pressure;Samples;Min_cycle;Max_cycle;Signal;HPM_P1;HPM_P2
2021/06/05 00:00:54;;;;;;;8.00;4.03;;;17.80;55.00;;;;;;5055634;28;20047;-74
2021/06/05 00:03:20;;;;;;;10.20;4.15;;;17.80;55.10;;;;;;5055566;28;20021;-73
2021/06/05 00:05:50;;;;;;;11.10;4.60;;;17.80;55.20;;;;;;5055319;28;20025;-73
2021/06/05 00:08:18;;;;;;;11.18;4.35;;;17.80;55.40;;;;;;5055298;28;20037;-74
2021/06/05 00:10:52;;;;;;;10.43;4.05;;;17.70;55.40;;;;;;5055467;28;20060;-74
2021/06/05 00:13:25;;;;;;;8.15;4.82;;;17.70;55.70;;;;;;5054913;28;20414;-73
2021/06/05 00:15:52;;;;;;;7.72;4.45;;;17.60;55.80;;;;;;5055279;28;20427;-78
2021/06/05 00:18:18;;;;;;;9.18;4.50;;;17.60;55.90;;;;;;5054519;28;20063;-73
2021/06/05 00:20:44;;;;;;;10.35;4.03;;;17.50;56.00;;;;;;5055121;28;20061;-73
2021/06/05 00:23:12;;;;;;;8.07;4.38;;;17.50;56.20;;;;;;5055128;28;20112;-73
2021/06/05 00:25:39;;;;;;;9.18;4.68;;;17.50;56.40;;;;;;5055431;28;20021;-73
2021/06/05 00:28:04;;;;;;;6.95;4.30;;;17.50;56.50;;;;;;5054976;28;20048;-73
2021/06/05 00:30:31;;;;;;;10.38;4.13;;;17.40;56.70;;;;;;5055116;28;20028;-74
2021/06/05 00:32:58;;;;;;;10.68;4.38;;;17.40;56.80;;;;;;5054947;28;20021;-73
2021/06/05 00:35:27;;;;;;;7.80;4.30;;;17.40;57.00;;;;;;5054147;28;20029;-73
2021/06/05 00:37:53;;;;;;;8.32;4.25;;;17.40;57.10;;;;;;5064564;28;20113;-76
2021/06/05 00:40:21;;;;;;;8.63;4.20;;;17.40;57.20;;;;;;5095024;28;20393;-73
2021/06/05 00:42:47;;;;;;;7.68;3.88;;;17.30;57.30;;;;;;5094901;28;20024;-73
2021/06/05 00:45:15;;;;;;;7.88;4.00;;;17.30;57.30;;;;;;5094626;28;20044;-74
2021/06/05 00:47:41;;;;;;;14.50;4.70;;;17.30;57.40;;;;;;5094921;28;20020;-73
2021/06/05 00:50:09;;;;;;;13.23;4.63;;;17.30;57.50;;;;;;5095011;28;20020;-73
2021/06/05 00:52:36;;;;;;;10.48;4.90;;;17.20;57.60;;;;;;5093826;28;20052;-73
2021/06/05 00:55:05;;;;;;;8.13;4.40;;;17.20;57.60;;;;;;5093352;28;20024;-74
2021/06/05 00:57:31;;;;;;;11.65;4.90;;;17.20;57.70;;;;;;5094784;28;20028;-74
2021/06/05 00:59:57;;;;;;;9.80;4.32;;;17.10;57.80;;;;;;5094542;28;20385;-73
2021/06/05 01:02:22;;;;;;;7.40;4.38;;;17.10;58.50;;;;;;5094770;28;20085;-73
2021/06/05 01:04:48;;;;;;;11.60;4.90;;;17.10;58.10;;;;;;5094573;28;20024;-73
2021/06/05 01:07:22;;;;;;;16.92;5.22;;;17.10;58.20;;;;;;5093109;28;20037;-73
2021/06/05 01:10:03;;;;;;;9.60;4.23;;;17.00;58.30;;;;;;5094382;28;20059;-74
2021/06/05 01:12:50;;;;;;;8.02;4.28;;;17.00;58.40;;;;;;5094821;28;20024;-73
2021/06/05 01:15:39;;;;;;;9.18;4.22;;;17.00;58.50;;;;;;5093122;28;20476;-74
2021/06/05 01:18:13;;;;;;;11.68;4.60;;;16.90;58.50;;;;;;5094263;28;20032;-74
2021/06/05 01:21:12;;;;;;;9.88;5.00;;;16.90;58.70;;;;;;5094428;28;20032;-73
2021/06/05 01:24:08;;;;;;;8.40;5.15;;;16.80;58.90;;;;;;5094607;28;20396;-73
2021/06/05 01:26:37;;;;;;;9.95;4.72;;;16.70;59.00;;;;;;5094214;28;20026;-73
2021/06/05 01:29:17;;;;;;;8.93;4.60;;;16.70;59.10;;;;;;5093873;28;20486;-74
2021/06/05 01:31:47;;;;;;;10.57;5.10;;;16.70;59.40;;;;;;5094205;28;20024;-74
2021/06/05 01:34:13;;;;;;;7.63;4.32;;;16.70;59.50;;;;;;5094106;28;20042;-73
2021/06/05 01:36:52;;;;;;;9.88;5.03;;;16.60;59.60;;;;;;5094830;28;20445;-73
2021/06/05 01:39:26;;;;;;;15.10;5.18;;;16.60;60.00;;;;;;5094292;28;20054;-74
2021/06/05 01:41:55;;;;;;;10.70;5.07;;;16.60;60.10;;;;;;5094513;28;20060;-73
2021/06/05 01:44:23;;;;;;;13.50;4.88;;;16.60;60.30;;;;;;5093889;28;20036;-74
2021/06/05 01:46:50;;;;;;;11.27;4.93;;;16.50;60.40;;;;;;5110320;28;20458;-74
2021/06/05 01:49:17;;;;;;;13.02;5.22;;;16.50;60.50;;;;;;5093793;28;20035;-73
2021/06/05 01:51:50;;;;;;;9.63;4.88;;;16.50;60.80;;;;;;5093924;28;20024;-73
2021/06/05 01:54:22;;;;;;;9.85;5.20;;;16.50;61.00;;;;;;5092443;28;20034;-74
2021/06/05 01:56:54;;;;;;;8.05;4.55;;;16.50;61.00;;;;;;5094033;28;20065;-73
2021/06/05 01:59:20;;;;;;;10.10;4.35;;;16.50;61.00;;;;;;5093377;28;20520;-73
2021/06/05 02:01:46;;;;;;;10.90;4.88;;;16.50;61.10;;;;;;5093623;28;20028;-73
2021/06/05 02:04:14;;;;;;;11.50;4.75;;;16.60;61.20;;;;;;5093634;28;20024;-74
2021/06/05 02:06:40;;;;;;;9.10;4.53;;;16.60;61.40;;;;;;5093284;28;20032;-73
2021/06/05 02:09:13;;;;;;;12.50;5.30;;;16.60;61.40;;;;;;5093303;28;20485;-74
2021/06/05 02:12:01;;;;;;;9.77;4.80;;;16.60;61.60;;;;;;5093801;28;20020;-73
2021/06/05 02:14:51;;;;;;;10.30;4.97;;;16.70;61.60;;;;;;5109041;28;20031;-73
2021/06/05 02:17:19;;;;;;;12.90;4.80;;;16.70;61.50;;;;;;5093343;28;20024;-73
2021/06/05 02:19:53;;;;;;;14.40;5.20;;;16.80;61.90;;;;;;5093478;28;20028;-73
2021/06/05 02:22:22;;;;;;;8.48;4.85;;;16.80;61.60;;;;;;5093161;28;20028;-73
2021/06/05 02:24:51;;;;;;;8.40;4.82;;;16.90;61.70;;;;;;5093557;28;20212;-73
2021/06/05 02:27:23;;;;;;;7.13;4.20;;;17.00;61.70;;;;;;5093297;28;20088;-73
2021/06/05 02:29:49;;;;;;;10.43;5.00;;;17.00;61.90;;;;;;5093118;28;20031;-73
2021/06/05 02:32:19;;;;;;;8.32;4.55;;;17.00;61.80;;;;;;5093622;28;20112;-74
2021/06/05 02:34:47;;;;;;;10.70;4.63;;;17.10;61.90;;;;;;5093097;28;20462;-73
2021/06/05 02:37:16;;;;;;;10.02;4.50;;;17.10;61.80;;;;;;5093022;28;20061;-74
2021/06/05 02:39:43;;;;;;;10.45;4.38;;;17.20;61.90;;;;;;5075880;28;20036;-73
2021/06/05 02:42:14;;;;;;;13.32;5.15;;;17.20;61.80;;;;;;5075206;28;20486;-74
2021/06/05 02:44:44;;;;;;;8.57;4.05;;;17.30;61.90;;;;;;5076852;28;20029;-73
2021/06/05 02:47:11;;;;;;;11.57;4.63;;;17.40;61.80;;;;;;5075765;28;20471;-74
2021/06/05 02:49:38;;;;;;;10.75;4.30;;;17.40;61.70;;;;;;5092984;28;20478;-73
2021/06/05 02:52:34;;;;;;;9.50;4.88;;;17.50;61.60;;;;;;5097271;28;20369;-74
2021/06/05 02:55:10;;;;;;;10.40;4.47;;;17.60;61.80;;;;;;5096520;28;20422;-73
2021/06/05 02:57:36;;;;;;;9.85;4.72;;;17.60;61.50;;;;;;5097055;28;20020;-73
2021/06/05 03:00:07;;;;;;;9.45;4.75;;;17.70;61.30;;;;;;5097005;28;20483;-75
2021/06/05 03:02:32;;;;;;;7.30;4.20;;;17.80;61.10;;;;;;5077175;28;20063;-74
2021/06/05 03:04:58;;;;;;;13.02;4.85;;;17.90;60.90;;;;;;5076580;28;20028;-73
2021/06/05 03:07:24;;;;;;;6.88;4.30;;;17.90;60.70;;;;;;5076863;28;20424;-73
2021/06/05 03:09:49;;;;;;;14.90;4.85;;;18.00;60.70;;;;;;5076411;28;20025;-73
2021/06/05 03:12:16;;;;;;;7.80;4.28;;;18.10;60.60;;;;;;5075246;28;20040;-74
2021/06/05 03:14:42;;;;;;;5.93;3.80;;;18.20;60.60;;;;;;5076358;28;20055;-74
2021/06/05 03:17:10;;;;;;;8.95;4.57;;;18.20;60.30;;;;;;5076480;28;20020;-74
2021/06/05 03:19:35;;;;;;;8.80;4.40;;;18.30;60.10;;;;;;5076384;28;20133;-73
2021/06/05 03:22:02;;;;;;;9.18;4.68;;;18.40;60.00;;;;;;5076485;28;20593;-73
2021/06/05 03:24:28;;;;;;;7.65;4.35;;;18.50;59.80;;;;;;5076155;28;20020;-74
2021/06/05 03:26:55;;;;;;;9.43;4.28;;;18.60;59.50;;;;;;5076193;28;20067;-74
2021/06/05 03:29:22;;;;;;;8.15;4.25;;;18.60;59.30;;;;;;5076229;28;20020;-74
2021/06/05 03:31:48;;;;;;;7.05;4.00;;;18.80;59.20;;;;;;5076338;28;20450;-74
2021/06/05 03:34:13;;;;;;;10.85;4.28;;;18.80;59.10;;;;;;5076109;28;20111;-74
2021/06/05 03:36:39;;;;;;;9.48;4.40;;;18.80;59.00;;;;;;5078621;28;20024;-74
2021/06/05 03:39:06;;;;;;;8.40;5.00;;;18.90;59.00;;;;;;5075614;28;20471;-76
2021/06/05 03:41:33;;;;;;;8.32;4.80;;;19.00;59.10;;;;;;5076433;28;20051;-74
2021/06/05 03:43:59;;;;;;;6.85;4.35;;;19.00;59.10;;;;;;5076047;28;20031;-73
2021/06/05 03:46:25;;;;;;;13.63;4.68;;;19.10;59.10;;;;;;5076222;28;20029;-73
2021/06/05 03:48:51;;;;;;;9.13;4.45;;;19.10;59.00;;;;;;5075824;28;20040;-73
2021/06/05 03:51:17;;;;;;;15.65;4.93;;;19.20;58.90;;;;;;5076123;28;20113;-73
2021/06/05 03:53:43;;;;;;;12.27;4.57;;;19.20;58.80;;;;;;5074484;28;20446;-74
2021/06/05 03:56:08;;;;;;;8.88;4.80;;;19.30;58.80;;;;;;5075789;28;20107;-74
2021/06/05 03:58:41;;;;;;;9.88;4.70;;;19.40;58.60;;;;;;5075936;28;20029;-73
2021/06/05 04:01:09;;;;;;;7.80;4.80;;;19.40;58.40;;;;;;5075527;28;20474;-74
2021/06/05 04:03:35;;;;;;;7.22;4.50;;;19.50;58.20;;;;;;5075689;28;20475;-74
2021/06/05 04:06:00;;;;;;;11.23;4.65;;;19.60;58.20;;;;;;5075566;28;20108;-74
2021/06/05 04:08:26;;;;;;;10.32;4.45;;;19.70;57.90;;;;;;5075496;28;20024;-74
2021/06/05 04:10:52;;;;;;;9.63;3.85;;;19.70;57.70;;;;;;5075582;28;20036;-74
2021/06/05 04:13:18;;;;;;;7.32;4.50;;;19.80;57.60;;;;;;5074269;28;20395;-74
2021/06/05 04:15:43;;;;;;;9.95;4.60;;;19.90;57.50;;;;;;5075309;28;20035;-74
2021/06/05 04:18:14;;;;;;;12.65;4.93;;;19.90;57.50;;;;;;5075314;28;20021;-73
2021/06/05 04:20:42;;;;;;;10.57;4.47;;;19.90;57.50;;;;;;5091471;28;20032;-74
2021/06/05 04:23:10;;;;;;;10.82;4.75;;;20.00;57.60;;;;;;5087556;28;20048;-75
2021/06/05 04:25:36;;;;;;;13.02;5.30;;;20.10;57.70;;;;;;5095475;28;20055;-73
2021/06/05 04:28:03;;;;;;;8.45;4.82;;;20.20;57.70;;;;;;5094156;28;20382;-73
2021/06/05 04:30:30;;;;;;;9.65;5.35;;;20.30;57.50;;;;;;5095286;28;20111;-73
2021/06/05 04:32:56;;;;;;;10.05;4.47;;;20.40;57.50;;;;;;5095117;28;20035;-73
2021/06/05 04:35:22;;;;;;;13.25;5.18;;;20.60;57.40;;;;;;5095043;28;20386;-73
2021/06/05 04:37:48;;;;;;;6.82;4.43;;;20.70;57.30;;;;;;5095141;28;20103;-74
2021/06/05 04:40:14;;;;;;;10.77;5.10;;;20.80;57.10;;;;;;5094724;28;20107;-73
2021/06/05 04:42:41;;;;;;;7.57;4.63;;;20.90;56.80;;;;;;5095093;28;20043;-73
2021/06/05 04:45:07;;;;;;;6.82;4.30;;;21.00;56.50;;;;;;5095296;28;20370;-75
2021/06/05 04:47:34;;;;;;;6.68;4.40;;;21.10;56.00;;;;;;5094877;28;20024;-73
2021/06/05 04:49:59;;;;;;;10.18;4.45;;;21.20;55.70;;;;;;5095003;28;20397;-73
2021/06/05 04:52:25;;;;;;;8.38;3.95;;;21.40;55.50;;;;;;5094623;28;20024;-74
2021/06/05 04:54:52;;;;;;;10.20;4.30;;;21.40;55.10;;;;;;5094889;28;20077;-73
2021/06/05 04:57:18;;;;;;;7.47;4.10;;;21.40;55.00;;;;;;5094898;28;20020;-74
2021/06/05 04:59:44;;;;;;;8.10;3.75;;;21.50;54.60;;;;;;5094813;28;20032;-73
2021/06/05 05:02:09;;;;;;;11.50;4.35;;;21.60;54.40;;;;;;5094675;28;20032;-77
2021/06/05 05:04:35;;;;;;;10.07;4.00;;;21.60;54.20;;;;;;5093132;28;20055;-74
2021/06/05 05:07:01;;;;;;;8.20;3.95;;;21.70;54.80;;;;;;5094749;28;20373;-74
2021/06/05 05:09:27;;;;;;;8.93;4.00;;;21.70;53.90;;;;;;5093376;28;20055;-73
2021/06/05 05:11:53;;;;;;;12.65;3.92;;;21.80;53.70;;;;;;5094515;28;20051;-74
2021/06/05 05:14:19;;;;;;;6.97;3.72;;;21.80;53.60;;;;;;5094465;28;20024;-74
2021/06/05 05:16:45;;;;;;;8.07;3.40;;;21.90;53.20;;;;;;5094209;28;20031;-74
2021/06/05 05:19:11;;;;;;;8.23;3.15;;;22.00;52.80;;;;;;5094249;28;20115;-75
2021/06/05 05:21:37;;;;;;;8.10;3.20;;;22.00;52.50;;;;;;5094387;28;20024;-74
2021/06/05 05:24:03;;;;;;;8.68;3.53;;;22.10;52.20;;;;;;5094195;28;20032;-74
2021/06/05 05:26:29;;;;;;;4.57;3.13;;;22.20;52.10;;;;;;5094455;28;20359;-73
2021/06/05 05:28:56;;;;;;;4.88;3.10;;;22.30;51.80;;;;;;5094108;28;20088;-74
2021/06/05 05:31:25;;;;;;;5.95;3.40;;;22.50;51.40;;;;;;5094047;28;20112;-74
2021/06/05 05:33:51;;;;;;;7.88;3.38;;;22.60;51.10;;;;;;5094127;28;20378;-74
2021/06/05 05:36:26;;;;;;;6.57;3.78;;;22.70;50.90;;;;;;5094048;28;20023;-74
2021/06/05 05:38:52;;;;;;;4.82;3.10;;;22.80;50.20;;;;;;5093923;28;20020;-74
2021/06/05 05:41:21;;;;;;;6.05;3.05;;;22.90;50.00;;;;;;5093904;28;20035;-74
2021/06/05 05:43:46;;;;;;;9.80;3.78;;;23.10;49.70;;;;;;5093879;28;20035;-74
2021/06/05 05:46:13;;;;;;;5.30;3.28;;;23.20;49.60;;;;;;5093802;28;20451;-76
2021/06/05 05:48:39;;;;;;;6.72;2.97;;;23.30;49.40;;;;;;5094069;28;20519;-74
2021/06/05 05:51:08;;;;;;;3.55;2.95;;;23.30;49.10;;;;;;5093812;28;20064;-73
2021/06/05 05:53:36;;;;;;;4.78;3.25;;;23.40;48.80;;;;;;5093654;28;20020;-73
2021/06/05 05:56:03;;;;;;;4.45;3.50;;;23.50;48.70;;;;;;5093843;28;20028;-73
2021/06/05 05:58:29;;;;;;;5.07;3.42;;;23.50;48.60;;;;;;5093482;28;20016;-73
2021/06/05 06:00:55;;;;;;;6.95;2.95;;;23.50;48.30;;;;;;5093311;28;20039;-72
2021/06/05 06:03:21;;;;;;;7.45;2.75;;;23.50;48.20;;;;;;5076705;28;20035;-75
2021/06/05 06:05:47;;;;;;;6.38;3.20;;;23.60;47.90;;;;;;5085204;28;20441;-74
2021/06/05 06:08:16;;;;;;;6.68;3.03;;;23.60;48.00;;;;;;5092334;28;20070;-85
2021/06/05 06:10:42;;;;;;;7.68;4.18;;;23.70;47.80;;;;;;5093833;28;20405;-74
2021/06/05 06:13:08;;;;;;;6.00;3.00;;;23.80;47.50;;;;;;5097840;28;20351;-74
2021/06/05 06:15:35;;;;;;;8.95;2.90;;;23.80;47.00;;;;;;5092374;28;20035;-74
2021/06/05 06:18:01;;;;;;;7.65;2.67;;;23.90;46.80;;;;;;5092845;28;20023;-73
2021/06/05 06:20:43;;;;;;;5.45;3.15;;;24.00;46.70;;;;;;5093028;28;20036;-73
2021/06/05 06:23:13;;;;;;;8.43;2.88;;;24.00;46.40;;;;;;5093390;28;20027;-74
2021/06/05 06:25:39;;;;;;;6.15;2.70;;;24.00;46.20;;;;;;5093564;28;20031;-73
2021/06/05 06:28:08;;;;;;;5.15;2.90;;;24.10;46.30;;;;;;5081528;28;20041;-73
2021/06/05 06:30:35;;;;;;;7.82;2.90;;;24.10;46.30;;;;;;5072993;28;20036;-73
2021/06/05 06:33:03;;;;;;;8.98;3.25;;;24.20;46.30;;;;;;5072901;28;20031;-73
2021/06/05 06:35:30;;;;;;;7.05;3.13;;;24.30;46.30;;;;;;5072918;28;20367;-73
2021/06/05 06:37:57;;;;;;;7.38;3.17;;;24.30;46.40;;;;;;5073045;28;20063;-73
2021/06/05 06:40:27;;;;;;;9.70;3.47;;;24.30;46.50;;;;;;5072487;28;20075;-73
2021/06/05 06:42:53;;;;;;;8.70;3.47;;;24.40;46.50;;;;;;5071794;28;20031;-74
2021/06/05 06:45:19;;;;;;;4.97;3.15;;;24.50;46.40;;;;;;5072980;28;20029;-73
2021/06/05 06:47:45;;;;;;;5.05;3.00;;;24.60;46.30;;;;;;5066399;28;20033;-75
2021/06/05 06:50:13;;;;;;;6.85;3.03;;;24.70;46.40;;;;;;5062341;28;20028;-75
2021/06/05 06:52:39;;;;;;;7.03;3.00;;;24.90;46.10;;;;;;5060374;28;20425;-73
2021/06/05 06:55:06;;;;;;;4.80;2.80;;;24.90;45.80;;;;;;5060268;28;20017;-75
2021/06/05 06:57:32;;;;;;;8.98;3.40;;;25.10;45.70;;;;;;5060440;28;20021;-74
2021/06/05 06:59:58;;;;;;;6.13;3.03;;;25.10;45.50;;;;;;5061546;28;20032;-75
2021/06/05 07:02:24;;;;;;;5.95;3.00;;;25.10;45.20;;;;;;5062313;28;20037;-76
2021/06/05 07:04:54;;;;;;;5.63;2.55;;;25.10;45.60;;;;;;5060455;28;20025;-74
2021/06/05 07:07:20;;;;;;;5.78;3.00;;;25.10;44.80;;;;;;5061059;28;20097;-74
2021/06/05 07:09:46;;;;;;;5.22;3.00;;;25.10;44.80;;;;;;5062106;28;20021;-74
2021/06/05 07:12:13;;;;;;;8.10;2.80;;;25.20;44.80;;;;;;5060456;28;20164;-74
2021/06/05 07:14:39;;;;;;;5.65;2.85;;;25.30;44.90;;;;;;5061348;28;20085;-75
2021/06/05 07:17:06;;;;;;;9.30;3.13;;;25.40;44.70;;;;;;5062295;28;20037;-74
2021/06/05 07:19:31;;;;;;;3.35;2.65;;;25.50;44.60;;;;;;5062367;28;20390;-74
2021/06/05 07:21:59;;;;;;;6.28;2.95;;;25.70;44.70;;;;;;5061180;28;20017;-73
2021/06/05 07:24:24;;;;;;;4.68;2.83;;;25.90;44.80;;;;;;5059077;28;20039;-75
2021/06/05 07:26:50;;;;;;;6.53;3.33;;;26.10;44.50;;;;;;5061072;28;20454;-74
2021/06/05 07:29:16;;;;;;;6.70;2.80;;;26.20;44.40;;;;;;5063640;28;20402;-76
2021/06/05 07:31:50;;;;;;;7.07;2.95;;;26.30;43.90;;;;;;5063751;28;20035;-74
2021/06/05 07:34:17;;;;;;;3.30;2.72;;;26.40;43.50;;;;;;5063921;28;20025;-81
2021/06/05 07:36:48;;;;;;;6.60;2.78;;;26.60;43.50;;;;;;5063964;28;20060;-76
2021/06/05 07:39:17;;;;;;;3.88;2.88;;;26.70;42.90;;;;;;5064008;28;20028;-77
2021/06/05 07:41:44;;;;;;;3.50;2.47;;;26.90;42.70;;;;;;5062756;28;20028;-73
2021/06/05 07:44:11;;;;;;;6.93;2.58;;;27.00;42.30;;;;;;5065604;28;20020;-74
2021/06/05 07:46:46;;;;;;;7.05;2.63;;;27.10;41.90;;;;;;5064014;28;20056;-73
2021/06/05 07:49:13;;;;;;;6.47;2.65;;;27.20;41.70;;;;;;5065341;28;20064;-74
2021/06/05 07:51:40;;;;;;;7.40;2.72;;;27.30;41.80;;;;;;5062912;28;20055;-74
2021/06/05 07:54:05;;;;;;;5.20;2.72;;;27.40;41.80;;;;;;5063534;28;20028;-74
2021/06/05 07:56:32;;;;;;;3.33;2.65;;;27.60;41.60;;;;;;5063247;28;20029;-74
2021/06/05 07:58:58;;;;;;;6.25;2.67;;;27.60;41.20;;;;;;5063972;28;20379;-74
2021/06/05 08:01:25;;;;;;;6.68;2.83;;;27.70;41.10;;;;;;5063639;28;20028;-77
2021/06/05 08:03:51;;;;;;;3.63;2.58;;;27.80;41.10;;;;;;5063226;28;20113;-74
2021/06/05 08:06:17;;;;;;;5.75;2.90;;;28.00;40.90;;;;;;5063171;28;20020;-75
2021/06/05 08:08:43;;;;;;;4.15;2.63;;;28.10;40.90;;;;;;5072960;28;20043;-74
2021/06/05 08:11:11;;;;;;;4.25;2.50;;;28.10;40.50;;;;;;5075205;28;20029;-73
2021/06/05 08:13:37;;;;;;;7.15;2.78;;;28.20;40.60;;;;;;5073966;28;20035;-73
2021/06/05 08:16:03;;;;;;;5.10;2.65;;;28.20;40.50;;;;;;5075054;28;20029;-73
2021/06/05 08:18:29;;;;;;;6.00;2.47;;;28.30;40.30;;;;;;5074994;28;20050;-74
2021/06/05 08:21:02;;;;;;;6.88;2.83;;;28.40;40.20;;;;;;5075078;28;20182;-74
2021/06/05 08:23:30;;;;;;;5.90;2.50;;;28.40;40.10;;;;;;5073791;28;20060;-73
2021/06/05 08:25:56;;;;;;;6.10;2.58;;;28.50;40.20;;;;;;5074993;28;20059;-73
2021/06/05 08:28:24;;;;;;;7.45;2.47;;;28.50;39.70;;;;;;5074987;28;20032;-74
2021/06/05 08:30:53;;;;;;;6.35;2.67;;;28.60;39.50;;;;;;5075156;28;20467;-73
2021/06/05 08:33:19;;;;;;;4.10;2.80;;;28.60;39.60;;;;;;5074849;28;20021;-74
2021/06/05 08:35:45;;;;;;;6.13;2.80;;;28.70;39.70;;;;;;5074946;28;20369;-75
2021/06/05 08:38:14;;;;;;;5.30;2.92;;;28.80;39.40;;;;;;5074745;28;20096;-74
2021/06/05 08:40:48;;;;;;;4.38;2.70;;;28.90;39.20;;;;;;5073898;28;20068;-74
2021/06/05 08:43:39;;;;;;;5.15;2.60;;;28.90;38.90;;;;;;5075078;28;20028;-74
2021/06/05 08:46:10;;;;;;;6.55;3.70;;;29.10;38.80;;;;;;5074638;28;20040;-73
2021/06/05 08:48:36;;;;;;;3.78;2.40;;;29.20;38.80;;;;;;5073273;28;20024;-74
2021/06/05 08:51:22;;;;;;;4.47;2.45;;;29.20;38.60;;;;;;5074665;28;20032;-75
2021/06/05 08:53:50;;;;;;;5.97;3.20;;;29.10;38.30;;;;;;5074825;28;20024;-73
2021/06/05 08:56:28;;;;;;;4.57;2.55;;;29.30;38.60;;;;;;5074514;28;20051;-74
2021/06/05 08:58:59;;;;;;;6.60;2.45;;;29.70;38.20;;;;;;5074849;28;20035;-74
2021/06/05 09:01:40;;;;;;;4.35;2.55;;;29.90;38.10;;;;;;5074381;28;20107;-74
2021/06/05 09:04:13;;;;;;;4.97;2.30;;;30.10;37.50;;;;;;5074002;28;20029;-73
2021/06/05 09:07:12;;;;;;;4.97;2.13;;;30.50;37.20;;;;;;5074027;28;20031;-74
2021/06/05 09:09:42;;;;;;;5.57;2.55;;;30.70;36.90;;;;;;5074215;28;20533;-75
2021/06/05 09:12:10;;;;;;;3.70;2.42;;;30.90;36.50;;;;;;5074357;28;20031;-74
2021/06/05 09:14:36;;;;;;;4.28;2.22;;;30.90;36.20;;;;;;5073968;28;20064;-73
2021/06/05 09:17:33;;;;;;;6.60;2.25;;;31.00;36.00;;;;;;5073812;28;20492;-74
2021/06/05 09:20:04;;;;;;;5.47;2.50;;;31.30;35.60;;;;;;5072530;28;20170;-73
2021/06/05 09:22:36;;;;;;;4.40;2.45;;;31.80;35.30;;;;;;5073235;28;20025;-75
2021/06/05 09:25:18;;;;;;;2.42;2.20;;;32.30;35.10;;;;;;5065844;28;20063;-75
2021/06/05 09:27:43;;;;;;;7.15;2.22;;;32.80;34.70;;;;;;5073852;28;20021;-74
2021/06/05 09:30:32;;;;;;;6.22;2.58;;;33.20;34.50;;;;;;5070370;28;20032;-74
2021/06/05 09:33:02;;;;;;;7.38;2.50;;;33.80;34.40;;;;;;5073702;28;20437;-74
2021/06/05 09:35:37;;;;;;;6.72;2.60;;;34.20;34.20;;;;;;5073653;28;20020;-74
2021/06/05 09:38:26;;;;;;;10.18;3.42;;;34.70;34.10;;;;;;5073737;28;20036;-74
2021/06/05 09:41:22;;;;;;;4.88;2.50;;;35.30;33.60;;;;;;5073753;28;20043;-75
2021/06/05 09:43:50;;;;;;;4.85;2.50;;;35.70;33.20;;;;;;5073833;28;20024;-74
2021/06/05 09:46:26;;;;;;;6.82;3.50;;;36.10;33.10;;;;;;5073661;28;20024;-74
2021/06/05 09:49:10;;;;;;;7.65;2.63;;;36.20;32.60;;;;;;5073585;28;20028;-74
2021/06/05 09:51:39;;;;;;;3.35;2.20;;;36.50;32.70;;;;;;5073013;28;20383;-74
2021/06/05 09:54:09;;;;;;;5.03;2.25;;;36.40;32.20;;;;;;5073499;28;20108;-74
2021/06/05 09:56:39;;;;;;;5.90;2.80;;;35.70;31.90;;;;;;5073481;28;20115;-75
2021/06/05 09:59:27;;;;;;;5.28;2.20;;;34.80;32.00;;;;;;5073446;28;20043;-73
2021/06/05 10:02:09;;;;;;;7.10;2.83;;;33.70;32.40;;;;;;5073422;28;20086;-74
2021/06/05 10:04:36;;;;;;;5.53;2.78;;;32.90;33.00;;;;;;5073441;28;20024;-73
2021/06/05 10:07:20;;;;;;;6.00;2.50;;;32.10;33.50;;;;;;5073187;28;20502;-74
2021/06/05 10:09:46;;;;;;;9.13;2.70;;;31.60;34.00;;;;;;5073494;28;20035;-73
2021/06/05 10:12:23;;;;;;;6.30;2.50;;;31.10;34.40;;;;;;5073363;28;20187;-75
2021/06/05 10:14:57;;;;;;;3.83;2.80;;;30.80;34.60;;;;;;5073073;28;20387;-75
2021/06/05 10:17:50;;;;;;;4.82;2.63;;;31.50;35.40;;;;;;5073238;28;20382;-75
2021/06/05 10:20:38;;;;;;;4.43;2.25;;;33.20;34.80;;;;;;5073260;28;20036;-73
2021/06/05 10:23:05;;;;;;;9.38;2.80;;;35.00;34.10;;;;;;5066621;28;20454;-76
2021/06/05 10:25:32;;;;;;;11.77;2.30;;;36.60;33.30;;;;;;5062259;28;20025;-78
2021/06/05 10:28:27;;;;;;;5.63;2.10;;;37.70;32.10;;;;;;5062015;28;20474;-75
2021/06/05 10:31:19;;;;;;;2.97;2.40;;;38.80;31.40;;;;;;5060494;28;20041;-75
2021/06/05 10:33:52;;;;;;;10.50;2.40;;;39.70;30.90;;;;;;5056343;28;20128;-75
2021/06/05 10:36:21;;;;;;;5.25;2.25;;;40.40;30.00;;;;;;5061425;28;20020;-75
2021/06/05 10:38:51;;;;;;;5.63;2.20;;;40.40;29.40;;;;;;5066571;28;20046;-75
2021/06/05 10:41:22;;;;;;;6.18;2.22;;;40.20;29.20;;;;;;5073067;28;20104;-75
2021/06/05 10:43:48;;;;;;;3.83;2.08;;;39.90;29.20;;;;;;5073104;28;20043;-75
2021/06/05 10:46:40;;;;;;;2.47;2.17;;;39.70;28.80;;;;;;5072329;28;20119;-74
2021/06/05 10:49:27;;;;;;;2.38;2.00;;;39.60;28.90;;;;;;5067722;28;20429;-75
2021/06/05 10:52:04;;;;;;;4.20;1.90;;;39.80;29.10;;;;;;5071342;28;20028;-75
2021/06/05 10:54:31;;;;;;;2.05;1.70;;;40.10;29.40;;;;;;5072791;28;20027;-74
2021/06/05 10:57:03;;;;;;;3.08;2.15;;;40.50;28.70;;;;;;5072935;28;20359;-75
2021/06/05 11:00:00;;;;;;;3.22;1.90;;;40.80;28.40;;;;;;5072343;28;20032;-76
2021/06/05 11:02:37;;;;;;;6.57;2.30;;;41.10;28.30;;;;;;5067903;28;20375;-74
2021/06/05 11:05:31;;;;;;;3.47;1.90;;;41.50;28.10;;;;;;5076525;28;20032;-75
2021/06/05 11:08:12;;;;;;;6.88;2.10;;;41.40;27.90;;;;;;5076412;28;20466;-74
2021/06/05 11:10:54;;;;;;;3.15;1.70;;;41.50;27.90;;;;;;5076716;28;20024;-75
2021/06/05 11:13:35;;;;;;;2.17;1.98;;;41.70;28.00;;;;;;5076188;28;20082;-75
2021/06/05 11:16:11;;;;;;;4.05;2.20;;;41.90;28.00;;;;;;5076309;28;20120;-75
2021/06/05 11:18:37;;;;;;;3.00;1.67;;;42.20;27.90;;;;;;5076405;28;20024;-74
2021/06/05 11:21:21;;;;;;;4.32;2.10;;;42.70;27.90;;;;;;5075748;28;20371;-74
2021/06/05 11:23:56;;;;;;;4.57;1.85;;;43.10;27.60;;;;;;5076186;28;20033;-75
2021/06/05 11:26:34;;;;;;;5.20;2.45;;;43.70;27.50;;;;;;5076232;28;20040;-75
2021/06/05 11:29:01;;;;;;;4.88;2.05;;;44.00;27.30;;;;;;5075975;28;20048;-74
2021/06/05 11:31:44;;;;;;;3.90;1.92;;;44.20;27.30;;;;;;5076192;28;20050;-75
2021/06/05 11:34:34;;;;;;;4.78;1.95;;;44.50;27.10;;;;;;5075447;28;20150;-76
2021/06/05 11:37:02;;;;;;;2.10;1.77;;;44.80;27.10;;;;;;5047257;28;20064;-75
2021/06/05 11:39:31;;;;;;;5.45;1.90;;;45.20;26.90;;;;;;5075956;28;20447;-76
2021/06/05 11:41:58;;;;;;;8.85;2.20;;;45.00;26.70;;;;;;5075063;28;20102;-74
2021/06/05 11:44:27;;;;;;;4.65;1.67;;;44.60;26.80;;;;;;5077029;28;20039;-75
2021/06/05 11:46:57;;;;;;;3.80;1.65;;;43.90;26.80;;;;;;5090911;28;20025;-74
2021/06/05 11:49:41;;;;;;;4.10;1.90;;;43.30;26.90;;;;;;5075414;28;20110;-75
2021/06/05 11:52:32;;;;;;;3.85;1.88;;;43.40;27.10;;;;;;5091878;28;20032;-75
2021/06/05 11:55:06;;;;;;;3.92;1.80;;;43.10;26.90;;;;;;5095789;28;20469;-74
2021/06/05 11:57:43;;;;;;;3.08;1.90;;;42.20;27.10;;;;;;5085099;28;20112;-75
2021/06/05 12:00:23;;;;;;;4.07;2.33;;;41.30;27.10;;;;;;5075709;28;20044;-74
2021/06/05 12:03:00;;;;;;;2.15;1.73;;;40.80;27.30;;;;;;5075813;28;20115;-75
2021/06/05 12:05:41;;;;;;;3.20;1.88;;;40.20;27.30;;;;;;5075140;28;20028;-74
2021/06/05 12:08:28;;;;;;;4.55;1.95;;;39.50;27.40;;;;;;5075658;28;20450;-73
2021/06/05 12:10:56;;;;;;;2.38;1.80;;;38.50;27.60;;;;;;5075118;28;20478;-73
2021/06/05 12:13:31;;;;;;;2.75;1.90;;;37.70;28.10;;;;;;5075305;28;20021;-73
2021/06/05 12:16:12;;;;;;;6.03;1.80;;;37.00;28.60;;;;;;5065332;28;20391;-75
2021/06/05 12:18:44;;;;;;;3.42;2.00;;;36.50;29.00;;;;;;5064746;28;20020;-75
2021/06/05 12:21:31;;;;;;;6.82;2.30;;;36.30;29.40;;;;;;5065198;28;20033;-73
2021/06/05 12:24:10;;;;;;;2.25;1.73;;;36.80;29.40;;;;;;5065501;28;20025;-74
2021/06/05 12:26:58;;;;;;;6.45;1.77;;;37.10;29.20;;;;;;5075071;28;20032;-75
2021/06/05 12:29:29;;;;;;;2.25;1.60;;;37.40;29.00;;;;;;5074895;28;20029;-73
2021/06/05 12:31:56;;;;;;;5.20;1.70;;;37.50;28.90;;;;;;5075191;28;20139;-74
2021/06/05 12:38:03;;;;;;;4.35;1.88;;;37.20;28.70;;;;;;5073977;28;20691;-74
2021/06/05 12:40:57;;;;;;;3.67;2.03;;;38.20;28.90;;;;;;5073808;28;20049;-75
2021/06/05 12:43:29;;;;;;;5.13;1.60;;;39.40;28.60;;;;;;5071067;28;20398;-75
2021/06/05 12:46:11;;;;;;;3.70;1.90;;;40.00;28.30;;;;;;5080976;28;20052;-75
2021/06/05 12:48:38;;;;;;;2.17;1.60;;;40.60;27.90;;;;;;5093718;28;20754;-72
2021/06/05 12:51:06;;;;;;;2.97;2.20;;;41.50;27.80;;;;;;5094544;28;20058;-74
2021/06/05 12:53:33;;;;;;;3.35;2.95;;;41.50;27.30;;;;;;5093833;28;20107;-75
2021/06/05 12:56:04;;;;;;;3.55;2.17;;;40.70;27.30;;;;;;5094007;28;20023;-74
2021/06/05 12:58:43;;;;;;;6.88;2.88;;;39.80;27.50;;;;;;5094278;28;20493;-74
2021/06/05 13:01:35;;;;;;;5.47;2.58;;;39.70;27.60;;;;;;5094973;28;20036;-74
2021/06/05 13:04:04;;;;;;;4.88;2.05;;;39.10;27.70;;;;;;5087780;28;20029;-75
2021/06/05 13:06:34;;;;;;;13.40;1.95;;;39.30;28.00;;;;;;5074366;28;20074;-74
2021/06/05 13:09:26;;;;;;;3.00;1.70;;;39.90;28.00;;;;;;5074382;28;20481;-73